Time;durP1;ratioP1;P1;durP2;ratioP2;P2;SDS_P1;SDS_P2;PMS_P1;PMS_P2;Temp;Humidity;BMP_temperature;BMP_pressure;BME280_temperature;BME280_humidity;BME280_pressure;Samples;Min_cycle;Max_cycle;Signal;HPM_P1;HPM_P2
2023/06/14 00:01:49;;;;;;;5.00;2.20;;;;;;;;;;5069663;28;20037;-60
2023/06/14 00:04:20;;;;;;;6.93;2.53;;;;;;;;;;5067170;28;20087;-60
2023/06/14 00:06:46;;;;;;;12.43;2.33;;;;;;;;;;5069603;28;20044;-60
2023/06/14 00:09:13;;;;;;;11.37;2.50;;;;;;;;;;5068772;28;20039;-60
2023/06/14 00:11:39;;;;;;;6.47;2.20;;;;;;;;;;5068233;28;20044;-60
2023/06/14 00:14:06;;;;;;;8.07;1.93;;;;;;;;;;5069437;28;20052;-60
2023/06/14 00:16:35;;;;;;;3.00;1.70;;;;;;;;;;5066992;28;20039;-60
2023/06/14 00:19:05;;;;;;;5.03;2.30;;;;;;;;;;5069578;28;20044;-60
2023/06/14 00:21:31;;;;;;;10.43;2.13;;;;;;;;;;5067891;28;20036;-59
2023/06/14 00:23:58;;;;;;;8.63;1.83;;;;;;;;;;5073081;28;20135;-60
2023/06/14 00:26:26;;;;;;;7.43;2.20;;;;;;;;;;5072391;28;20044;-60
2023/06/14 00:28:52;;;;;;;3.37;2.17;;;;;;;;;;5073044;28;20048;-60
2023/06/14 00:31:18;;;;;;;7.37;2.40;;;;;;;;;;5069929;28;20040;-60
2023/06/14 00:33:44;;;;;;;9.13;2.00;;;;;;;;;;5052853;28;20060;-60
2023/06/14 00:36:10;;;;;;;9.77;2.20;;;;;;;;;;5053797;28;20213;-60
2023/06/14 00:38:36;;;;;;;10.97;3.37;;;;;;;;;;5071987;28;20135;-60
2023/06/14 00:41:02;;;;;;;4.53;2.50;;;;;;;;;;5071907;28;20045;-60
2023/06/14 00:43:28;;;;;;;4.83;2.20;;;;;;;;;;5072717;28;20048;-60
2023/06/14 00:45:54;;;;;;;6.60;2.20;;;;;;;;;;5072298;28;20429;-60
2023/06/14 00:48:20;;;;;;;9.33;2.80;;;;;;;;;;5072621;28;20052;-60
2023/06/14 00:50:48;;;;;;;5.03;2.07;;;;;;;;;;5071319;28;20135;-60
2023/06/14 00:53:17;;;;;;;7.77;2.40;;;;;;;;;;5071030;28;20052;-60
2023/06/14 00:55:43;;;;;;;6.27;2.60;;;;;;;;;;5072021;28;20086;-60
2023/06/14 00:58:10;;;;;;;7.07;2.10;;;;;;;;;;5072302;28;20044;-60
2023/06/14 01:00:36;;;;;;;8.27;2.23;;;;;;;;;;5071880;28;20051;-60
2023/06/14 01:03:03;;;;;;;8.57;2.27;;;;;;;;;;5071365;28;20048;-60
2023/06/14 01:05:30;;;;;;;9.67;3.13;;;;;;;;;;5070655;28;20075;-60
2023/06/14 01:08:15;;;;;;;10.80;2.33;;;;;;;;;;5072365;28;20704;-60
2023/06/14 01:10:59;;;;;;;7.00;2.00;;;;;;;;;;5072548;28;20056;-60
2023/06/14 01:13:29;;;;;;;6.83;2.50;;;;;;;;;;5072149;28;20041;-60
2023/06/14 01:15:56;;;;;;;7.07;2.30;;;;;;;;;;5072344;28;20090;-60
2023/06/14 01:18:24;;;;;;;6.17;2.20;;;;;;;;;;5070180;28;20044;-60
2023/06/14 01:20:50;;;;;;;7.57;2.30;;;;;;;;;;5071592;28;20040;-60
2023/06/14 01:23:20;;;;;;;7.87;2.10;;;;;;;;;;5070622;28;20043;-60
2023/06/14 01:25:46;;;;;;;6.47;2.47;;;;;;;;;;5060947;28;20048;-60
2023/06/14 01:28:14;;;;;;;7.30;2.07;;;;;;;;;;5071465;28;20098;-60
2023/06/14 01:30:47;;;;;;;5.87;1.80;;;;;;;;;;5070386;28;20048;-60
2023/06/14 01:33:15;;;;;;;13.43;3.22;;;;;;;;;;5071123;28;20143;-60
2023/06/14 01:35:45;;;;;;;6.87;2.27;;;;;;;;;;5069382;28;20044;-60
2023/06/14 01:38:11;;;;;;;9.43;2.37;;;;;;;;;;5071277;28;20048;-60
2023/06/14 01:40:37;;;;;;;9.60;2.83;;;;;;;;;;5070609;28;20048;-60
2023/06/14 01:43:04;;;;;;;8.40;2.50;;;;;;;;;;5069921;28;20040;-60
2023/06/14 01:45:30;;;;;;;10.60;2.70;;;;;;;;;;5070739;28;20045;-60
2023/06/14 01:47:56;;;;;;;8.53;2.33;;;;;;;;;;5069622;28;20047;-60
2023/06/14 01:50:22;;;;;;;9.57;2.43;;;;;;;;;;5071182;28;20044;-60
2023/06/14 01:52:48;;;;;;;11.37;2.93;;;;;;;;;;5071061;28;20040;-60
2023/06/14 01:55:15;;;;;;;8.83;2.90;;;;;;;;;;5071196;28;20048;-60
2023/06/14 01:57:41;;;;;;;8.17;2.70;;;;;;;;;;5057179;28;20056;-60
2023/06/14 02:00:10;;;;;;;8.10;2.77;;;;;;;;;;5070436;28;20032;-60
2023/06/14 02:02:36;;;;;;;10.70;2.40;;;;;;;;;;5069280;28;20494;-60
2023/06/14 02:05:02;;;;;;;7.13;2.33;;;;;;;;;;5071048;28;20094;-60
2023/06/14 02:07:28;;;;;;;4.27;2.60;;;;;;;;;;5069508;28;20407;-60
2023/06/14 02:09:54;;;;;;;7.13;2.43;;;;;;;;;;5070413;28;20044;-60
2023/06/14 02:12:20;;;;;;;9.23;2.27;;;;;;;;;;5070531;28;20091;-60
2023/06/14 02:14:46;;;;;;;8.97;2.63;;;;;;;;;;5070882;28;20479;-60
2023/06/14 02:17:12;;;;;;;5.97;2.40;;;;;;;;;;5068851;28;20490;-60
2023/06/14 02:19:38;;;;;;;5.03;2.43;;;;;;;;;;5071191;28;20101;-60
2023/06/14 02:22:05;;;;;;;6.47;2.27;;;;;;;;;;5070585;28;20123;-60
2023/06/14 02:24:31;;;;;;;6.10;3.27;;;;;;;;;;5070802;28;20075;-60
2023/06/14 02:26:57;;;;;;;4.83;2.40;;;;;;;;;;5070799;28;20482;-60
2023/06/14 02:29:23;;;;;;;5.73;2.70;;;;;;;;;;5070104;28;20040;-60
2023/06/14 02:31:49;;;;;;;5.77;2.90;;;;;;;;;;5070317;28;20152;-60
2023/06/14 02:34:17;;;;;;;10.57;3.07;;;;;;;;;;5069545;28;20507;-60
2023/06/14 02:36:45;;;;;;;7.30;2.80;;;;;;;;;;5069970;28;20052;-60
2023/06/14 02:39:11;;;;;;;12.97;2.73;;;;;;;;;;5070192;28;20052;-60
2023/06/14 02:41:37;;;;;;;4.87;2.70;;;;;;;;;;5069852;28;20052;-60
2023/06/14 02:44:04;;;;;;;6.77;2.17;;;;;;;;;;5069686;28;20589;-60
2023/06/14 02:46:30;;;;;;;5.77;2.57;;;;;;;;;;5068794;28;20048;-60
2023/06/14 02:48:56;;;;;;;7.43;2.70;;;;;;;;;;5069422;28;20093;-60
2023/06/14 02:51:22;;;;;;;4.63;2.50;;;;;;;;;;5069154;28;20544;-60
2023/06/14 02:53:48;;;;;;;5.47;2.77;;;;;;;;;;5070637;28;20044;-60
2023/06/14 02:56:14;;;;;;;6.17;2.60;;;;;;;;;;5069537;28;20482;-60
2023/06/14 02:58:40;;;;;;;6.50;2.77;;;;;;;;;;5068858;28;20044;-60
2023/06/14 03:01:07;;;;;;;6.30;3.13;;;;;;;;;;5069339;28;20498;-60
2023/06/14 03:03:34;;;;;;;6.30;2.77;;;;;;;;;;5069870;28;20044;-60
2023/06/14 03:06:04;;;;;;;6.27;2.60;;;;;;;;;;5069880;28;20047;-60
2023/06/14 03:08:33;;;;;;;6.80;2.70;;;;;;;;;;5069749;28;20475;-60
2023/06/14 03:10:59;;;;;;;7.00;2.93;;;;;;;;;;5069921;28;20048;-60
2023/06/14 03:13:26;;;;;;;5.97;2.67;;;;;;;;;;5068541;28;20131;-60
2023/06/14 03:15:52;;;;;;;13.43;3.33;;;;;;;;;;5070100;28;20106;-60
2023/06/14 03:18:19;;;;;;;7.43;2.67;;;;;;;;;;5068862;28;20844;-60
2023/06/14 03:20:47;;;;;;;8.37;3.20;;;;;;;;;;5070267;28;20074;-60
2023/06/14 03:23:13;;;;;;;7.57;2.90;;;;;;;;;;5059172;28;20489;-60
2023/06/14 03:25:42;;;;;;;8.63;2.57;;;;;;;;;;5067681;28;20044;-60
2023/06/14 03:28:08;;;;;;;10.23;3.33;;;;;;;;;;5068715;28;20084;-60
2023/06/14 03:30:34;;;;;;;6.67;2.70;;;;;;;;;;5068575;28;20040;-60
2023/06/14 03:33:01;;;;;;;5.27;2.50;;;;;;;;;;5069511;28;20114;-60
2023/06/14 03:35:27;;;;;;;6.37;2.70;;;;;;;;;;5069166;28;20041;-60
2023/06/14 03:37:53;;;;;;;8.80;2.70;;;;;;;;;;5069832;28;20040;-60
2023/06/14 03:40:20;;;;;;;7.27;3.20;;;;;;;;;;5068766;28;20406;-60
2023/06/14 03:42:46;;;;;;;7.57;2.90;;;;;;;;;;5069188;28;20045;-60
2023/06/14 03:45:12;;;;;;;7.20;2.90;;;;;;;;;;5069243;28;20059;-60
2023/06/14 03:47:38;;;;;;;8.17;3.30;;;;;;;;;;5066082;28;20776;-60
2023/06/14 03:50:04;;;;;;;7.43;3.17;;;;;;;;;;5068560;28;20486;-60
2023/06/14 03:52:31;;;;;;;8.10;3.50;;;;;;;;;;5067938;28;20068;-60
2023/06/14 03:54:57;;;;;;;4.53;2.67;;;;;;;;;;5069527;28;20044;-60
2023/06/14 03:57:24;;;;;;;5.47;2.90;;;;;;;;;;5070312;28;20110;-60
2023/06/14 03:59:50;;;;;;;7.40;3.17;;;;;;;;;;5071941;28;20048;-59
2023/06/14 04:02:17;;;;;;;7.40;3.27;;;;;;;;;;5073400;28;20163;-60
2023/06/14 04:04:45;;;;;;;9.17;2.57;;;;;;;;;;5071403;28;20060;-61
2023/06/14 04:07:14;;;;;;;5.10;2.80;;;;;;;;;;5071279;28;20048;-60
2023/06/14 04:09:40;;;;;;;7.60;3.47;;;;;;;;;;5073227;28;20048;-60
2023/06/14 04:12:08;;;;;;;8.80;3.40;;;;;;;;;;5072245;28;20174;-60
2023/06/14 04:14:34;;;;;;;4.83;2.83;;;;;;;;;;5073168;28;20495;-60
2023/06/14 04:17:00;;;;;;;8.80;3.20;;;;;;;;;;5072216;28;20045;-60
2023/06/14 04:19:27;;;;;;;7.13;3.23;;;;;;;;;;5073036;28;20056;-60
2023/06/14 04:21:53;;;;;;;6.30;3.03;;;;;;;;;;5072124;28;20032;-60
2023/06/14 04:24:19;;;;;;;6.67;3.30;;;;;;;;;;5073195;28;20057;-60
2023/06/14 04:26:47;;;;;;;10.03;3.33;;;;;;;;;;5072309;28;20053;-60
2023/06/14 04:29:14;;;;;;;8.37;3.00;;;;;;;;;;5072893;28;20083;-60
2023/06/14 04:31:44;;;;;;;4.70;2.77;;;;;;;;;;5072129;28;20124;-60
2023/06/14 04:34:15;;;;;;;6.53;2.93;;;;;;;;;;5071126;28;20064;-60
2023/06/14 04:36:49;;;;;;;6.50;2.90;;;;;;;;;;5072212;28;20077;-60
2023/06/14 04:39:17;;;;;;;6.20;3.35;;;;;;;;;;5071223;28;20054;-60
2023/06/14 04:41:44;;;;;;;9.20;3.40;;;;;;;;;;5071652;28;20041;-60
2023/06/14 04:44:10;;;;;;;5.37;2.67;;;;;;;;;;5070758;28;20090;-60
2023/06/14 04:46:46;;;;;;;4.83;2.90;;;;;;;;;;5071468;28;20041;-60
2023/06/14 04:49:15;;;;;;;4.83;2.70;;;;;;;;;;5072390;28;20056;-60
2023/06/14 04:51:46;;;;;;;8.83;3.50;;;;;;;;;;5070143;28;20044;-60
2023/06/14 04:54:13;;;;;;;6.63;2.90;;;;;;;;;;5071992;28;20056;-60
2023/06/14 04:56:40;;;;;;;5.20;3.03;;;;;;;;;;5070661;28;20414;-60
2023/06/14 04:59:06;;;;;;;8.47;3.23;;;;;;;;;;5072445;28;20135;-60
2023/06/14 05:01:32;;;;;;;7.03;2.80;;;;;;;;;;5071459;28;20135;-60
2023/06/14 05:03:59;;;;;;;5.87;2.70;;;;;;;;;;5053905;28;20048;-60
2023/06/14 05:06:27;;;;;;;9.43;3.10;;;;;;;;;;5072421;28;20806;-61
2023/06/14 05:08:53;;;;;;;8.00;3.40;;;;;;;;;;5069939;28;20502;-60
2023/06/14 05:11:19;;;;;;;6.63;2.90;;;;;;;;;;5071130;28;20055;-60
2023/06/14 05:13:46;;;;;;;10.47;3.10;;;;;;;;;;5071696;28;20094;-60
2023/06/14 05:16:12;;;;;;;10.10;2.97;;;;;;;;;;5071295;28;20052;-60
2023/06/14 05:18:40;;;;;;;12.00;3.60;;;;;;;;;;5071906;28;20052;-61
2023/06/14 05:21:06;;;;;;;6.50;3.40;;;;;;;;;;5071076;28;20098;-60
2023/06/14 05:23:32;;;;;;;11.80;3.03;;;;;;;;;;5070925;28;20528;-61
2023/06/14 05:25:58;;;;;;;8.90;3.40;;;;;;;;;;5071725;28;20055;-60
2023/06/14 05:28:24;;;;;;;5.70;3.37;;;;;;;;;;5069552;28;20048;-61
2023/06/14 05:30:51;;;;;;;8.57;2.93;;;;;;;;;;5070096;28;20201;-60
2023/06/14 05:33:17;;;;;;;5.40;2.57;;;;;;;;;;5070926;28;20052;-60
2023/06/14 05:35:43;;;;;;;5.17;2.50;;;;;;;;;;5066884;28;20041;-60
2023/06/14 05:38:10;;;;;;;9.50;3.13;;;;;;;;;;5069414;28;20047;-60
2023/06/14 05:40:36;;;;;;;6.27;2.70;;;;;;;;;;5068309;28;20181;-60
2023/06/14 05:43:02;;;;;;;6.50;2.77;;;;;;;;;;5067329;28;20048;-60
2023/06/14 05:45:28;;;;;;;9.07;2.93;;;;;;;;;;5068910;28;20044;-61
2023/06/14 05:47:57;;;;;;;8.27;3.10;;;;;;;;;;5069205;28;20098;-60
2023/06/14 05:50:23;;;;;;;8.07;2.50;;;;;;;;;;5068236;28;20102;-60
2023/06/14 05:52:49;;;;;;;7.47;2.90;;;;;;;;;;5069137;28;20055;-61
2023/06/14 05:55:16;;;;;;;10.50;2.80;;;;;;;;;;5069535;28;20491;-61
2023/06/14 05:57:43;;;;;;;7.33;2.77;;;;;;;;;;5070562;28;20044;-61
2023/06/14 06:00:14;;;;;;;7.50;3.37;;;;;;;;;;5069888;28;20505;-61
2023/06/14 06:02:43;;;;;;;6.50;3.30;;;;;;;;;;5068647;28;20067;-61
2023/06/14 06:05:09;;;;;;;6.40;2.83;;;;;;;;;;5068319;28;20102;-61
2023/06/14 06:07:35;;;;;;;7.00;3.80;;;;;;;;;;5071047;28;20045;-61
2023/06/14 06:10:01;;;;;;;7.20;2.83;;;;;;;;;;5070407;28;20102;-61
2023/06/14 06:12:27;;;;;;;6.90;3.10;;;;;;;;;;5052875;28;20044;-61
2023/06/14 06:14:53;;;;;;;8.83;3.43;;;;;;;;;;5069030;28;20052;-60
2023/06/14 06:17:19;;;;;;;6.60;3.10;;;;;;;;;;5062108;28;20041;-61
2023/06/14 06:19:45;;;;;;;7.00;2.90;;;;;;;;;;5050263;28;20041;-60
2023/06/14 06:22:11;;;;;;;7.73;3.00;;;;;;;;;;5055655;28;20045;-60
2023/06/14 06:24:37;;;;;;;7.43;3.10;;;;;;;;;;5069936;28;20055;-60
2023/06/14 06:27:04;;;;;;;5.57;2.80;;;;;;;;;;5070571;28;20052;-61
2023/06/14 06:29:30;;;;;;;7.03;3.20;;;;;;;;;;5067954;28;20051;-60
2023/06/14 06:31:56;;;;;;;6.07;2.93;;;;;;;;;;5070069;28;20055;-62
2023/06/14 06:34:22;;;;;;;5.03;2.97;;;;;;;;;;5069131;28;20048;-61
2023/06/14 06:36:48;;;;;;;6.93;3.47;;;;;;;;;;5070335;28;20048;-62
2023/06/14 06:39:15;;;;;;;9.10;3.00;;;;;;;;;;5068705;28;20036;-61
2023/06/14 06:41:41;;;;;;;6.57;2.90;;;;;;;;;;5070436;28;20052;-61
2023/06/14 06:44:09;;;;;;;5.37;2.47;;;;;;;;;;5068502;28;20480;-62
2023/06/14 06:46:39;;;;;;;6.73;2.53;;;;;;;;;;5069080;28;20075;-62
2023/06/14 06:49:05;;;;;;;5.50;2.50;;;;;;;;;;5068931;28;20048;-62
2023/06/14 06:51:32;;;;;;;6.23;2.30;;;;;;;;;;5069004;28;20044;-61
2023/06/14 06:53:58;;;;;;;5.67;2.03;;;;;;;;;;5069746;28;20415;-62
2023/06/14 06:56:24;;;;;;;4.97;1.80;;;;;;;;;;5068201;28;20052;-62
2023/06/14 06:58:50;;;;;;;7.13;2.23;;;;;;;;;;5069169;28;20052;-62
2023/06/14 07:01:17;;;;;;;4.67;2.13;;;;;;;;;;5068277;28;20530;-62
2023/06/14 07:03:43;;;;;;;5.30;2.00;;;;;;;;;;5069516;28;20041;-62
2023/06/14 07:06:10;;;;;;;4.13;1.73;;;;;;;;;;5068694;28;20044;-62
2023/06/14 07:08:38;;;;;;;9.43;2.60;;;;;;;;;;5070142;28;20040;-62
2023/06/14 07:11:04;;;;;;;5.27;1.77;;;;;;;;;;5068794;28;20040;-62
2023/06/14 07:13:31;;;;;;;11.33;4.07;;;;;;;;;;5070216;28;20060;-62
2023/06/14 07:15:59;;;;;;;4.70;1.90;;;;;;;;;;5068087;28;20457;-62
2023/06/14 07:18:25;;;;;;;5.03;2.00;;;;;;;;;;5069922;28;20134;-62
2023/06/14 07:20:51;;;;;;;4.53;1.83;;;;;;;;;;5069065;28;20578;-62
2023/06/14 07:23:18;;;;;;;9.70;1.90;;;;;;;;;;5066464;28;20041;-62
2023/06/14 07:25:44;;;;;;;12.30;2.30;;;;;;;;;;5068995;28;20037;-62
2023/06/14 07:28:10;;;;;;;4.83;1.90;;;;;;;;;;5069249;28;20052;-62
2023/06/14 07:30:36;;;;;;;6.97;1.97;;;;;;;;;;5068389;28;20375;-62
2023/06/14 07:33:02;;;;;;;6.57;2.47;;;;;;;;;;5069204;28;20422;-62
2023/06/14 07:35:28;;;;;;;6.33;2.23;;;;;;;;;;5057802;28;20045;-62
2023/06/14 07:37:54;;;;;;;8.30;2.23;;;;;;;;;;5069622;28;20044;-62
2023/06/14 07:40:20;;;;;;;7.73;2.20;;;;;;;;;;5065107;28;20494;-62
2023/06/14 07:42:46;;;;;;;3.37;2.20;;;;;;;;;;5068287;28;20110;-62
2023/06/14 07:45:14;;;;;;;4.03;2.00;;;;;;;;;;5066469;28;20056;-62
2023/06/14 07:47:40;;;;;;;6.17;2.30;;;;;;;;;;5067314;28;20127;-62
2023/06/14 07:50:06;;;;;;;5.53;2.13;;;;;;;;;;5068556;28;20106;-62
2023/06/14 07:52:32;;;;;;;4.80;2.13;;;;;;;;;;5066433;28;20041;-62
2023/06/14 07:54:58;;;;;;;4.83;2.00;;;;;;;;;;5067502;28;20051;-62
2023/06/14 07:57:24;;;;;;;5.70;2.60;;;;;;;;;;5051037;28;20398;-62
2023/06/14 07:59:50;;;;;;;6.80;2.20;;;;;;;;;;5066747;28;20799;-62
2023/06/14 08:02:17;;;;;;;5.30;1.50;;;;;;;;;;5063545;28;20659;-62
2023/06/14 08:04:43;;;;;;;4.03;1.90;;;;;;;;;;5059519;28;20045;-62
2023/06/14 08:07:09;;;;;;;4.67;1.70;;;;;;;;;;5060879;28;20041;-62
2023/06/14 08:09:37;;;;;;;3.87;2.17;;;;;;;;;;5060340;28;20036;-62
2023/06/14 08:12:07;;;;;;;4.50;2.00;;;;;;;;;;5065661;28;20052;-63
2023/06/14 08:14:33;;;;;;;3.53;1.70;;;;;;;;;;5067379;28;20392;-62
2023/06/14 08:16:59;;;;;;;5.03;1.80;;;;;;;;;;5066782;28;20355;-62
2023/06/14 08:19:26;;;;;;;8.07;2.77;;;;;;;;;;5066714;28;20051;-62
2023/06/14 08:21:54;;;;;;;4.05;1.85;;;;;;;;;;5067102;28;20508;-61
2023/06/14 08:24:24;;;;;;;3.25;1.67;;;;;;;;;;5067246;28;20053;-61
2023/06/14 08:26:50;;;;;;;4.75;2.53;;;;;;;;;;5064212;28;20083;-61
2023/06/14 08:29:16;;;;;;;4.57;2.10;;;;;;;;;;5067438;28;20494;-61
2023/06/14 08:31:42;;;;;;;4.18;2.10;;;;;;;;;;5067328;28;20041;-61
2023/06/14 08:34:08;;;;;;;3.30;1.52;;;;;;;;;;5066897;28;20114;-61
2023/06/14 08:36:35;;;;;;;4.05;1.67;;;;;;;;;;5068361;28;20494;-62
2023/06/14 08:39:01;;;;;;;3.13;1.98;;;;;;;;;;5067239;28;20041;-62
2023/06/14 08:41:29;;;;;;;4.53;2.00;;;;;;;;;;5068644;28;20028;-62
2023/06/14 08:43:55;;;;;;;4.03;1.77;;;;;;;;;;5069900;28;20060;-62
2023/06/14 08:46:22;;;;;;;3.33;1.77;;;;;;;;;;5071738;28;20055;-62
2023/06/14 08:48:56;;;;;;;3.63;1.77;;;;;;;;;;5071012;28;20052;-61
2023/06/14 08:51:23;;;;;;;2.88;1.73;;;;;;;;;;5071888;28;20139;-62
2023/06/14 08:53:52;;;;;;;2.75;1.17;;;;;;;;;;5070477;28;20498;-62
2023/06/14 08:56:20;;;;;;;4.47;1.48;;;;;;;;;;5071548;28;20060;-62
2023/06/14 08:58:48;;;;;;;6.35;1.80;;;;;;;;;;5070960;28;20052;-62
2023/06/14 09:01:16;;;;;;;4.50;1.42;;;;;;;;;;5068035;28;20127;-61
2023/06/14 09:03:42;;;;;;;4.50;1.38;;;;;;;;;;5051730;28;20045;-62
2023/06/14 09:06:13;;;;;;;3.67;1.30;;;;;;;;;;5051766;28;20049;-62
2023/06/14 09:08:47;;;;;;;6.07;1.50;;;;;;;;;;5069924;28;20052;-62
2023/06/14 09:11:14;;;;;;;6.05;1.55;;;;;;;;;;5071296;28;20097;-61
2023/06/14 09:13:40;;;;;;;3.03;1.60;;;;;;;;;;5070570;28;20510;-62
2023/06/14 09:16:07;;;;;;;4.63;1.80;;;;;;;;;;5070991;28;20037;-62
2023/06/14 09:18:40;;;;;;;7.65;1.52;;;;;;;;;;5070328;28;20044;-62
2023/06/14 09:21:07;;;;;;;5.30;1.40;;;;;;;;;;5070592;28;20051;-62
2023/06/14 09:23:41;;;;;;;5.13;1.30;;;;;;;;;;5069866;28;20131;-62
2023/06/14 09:26:17;;;;;;;4.95;1.70;;;;;;;;;;5071078;28;20041;-62
2023/06/14 09:28:50;;;;;;;4.03;1.52;;;;;;;;;;5068816;28;20056;-62
2023/06/14 09:31:20;;;;;;;3.42;1.30;;;;;;;;;;5070287;28;20052;-62
2023/06/14 09:33:48;;;;;;;4.40;1.40;;;;;;;;;;5070875;28;20056;-62
2023/06/14 09:36:19;;;;;;;3.38;1.50;;;;;;;;;;5070172;28;20135;-62
2023/06/14 09:38:54;;;;;;;3.33;1.40;;;;;;;;;;5049694;28;20048;-62
2023/06/14 09:41:20;;;;;;;3.53;1.20;;;;;;;;;;5049437;28;20056;-63
2023/06/14 09:43:47;;;;;;;4.15;1.63;;;;;;;;;;5068954;28;20032;-62
2023/06/14 09:46:14;;;;;;;4.10;1.40;;;;;;;;;;5068888;28;20554;-62
2023/06/14 09:48:42;;;;;;;3.60;1.30;;;;;;;;;;5065345;28;20041;-62
2023/06/14 09:51:10;;;;;;;9.73;1.67;;;;;;;;;;5049078;28;20051;-62
2023/06/14 09:53:37;;;;;;;4.32;1.20;;;;;;;;;;5058692;28;20051;-62
2023/06/14 09:56:05;;;;;;;2.60;1.42;;;;;;;;;;5068186;28;20045;-62
2023/06/14 09:58:31;;;;;;;2.33;0.90;;;;;;;;;;5067371;28;20063;-62
2023/06/14 10:00:57;;;;;;;3.85;1.27;;;;;;;;;;5068136;28;20733;-62
2023/06/14 10:03:29;;;;;;;6.18;1.40;;;;;;;;;;5066412;28;20636;-62
2023/06/14 10:06:01;;;;;;;2.83;1.27;;;;;;;;;;5067490;28;20147;-62
2023/06/14 10:08:28;;;;;;;2.72;1.40;;;;;;;;;;5069453;28;20036;-62
2023/06/14 10:10:56;;;;;;;5.07;1.60;;;;;;;;;;5055026;28;20048;-62
2023/06/14 10:13:22;;;;;;;4.55;2.17;;;;;;;;;;5049673;28;20132;-62
2023/06/14 10:16:03;;;;;;;3.42;1.13;;;;;;;;;;5060931;28;20044;-62
2023/06/14 10:18:45;;;;;;;3.00;1.30;;;;;;;;;;5064116;28;20040;-62
2023/06/14 10:21:14;;;;;;;3.65;1.10;;;;;;;;;;5069496;28;20498;-63
2023/06/14 10:23:45;;;;;;;4.65;1.30;;;;;;;;;;5069229;28;20053;-62
2023/06/14 10:26:18;;;;;;;2.13;1.30;;;;;;;;;;5069702;28;20048;-62
2023/06/14 10:28:55;;;;;;;3.67;1.40;;;;;;;;;;5067281;28;20047;-62
2023/06/14 10:31:21;;;;;;;4.10;1.20;;;;;;;;;;5067807;28;20040;-62
2023/06/14 10:33:54;;;;;;;8.07;1.30;;;;;;;;;;5066808;28;20530;-62
2023/06/14 10:36:23;;;;;;;2.75;1.40;;;;;;;;;;5066520;28;20102;-62
2023/06/14 10:38:59;;;;;;;4.70;1.15;;;;;;;;;;5060124;28;20037;-62
2023/06/14 10:41:27;;;;;;;4.10;1.20;;;;;;;;;;5067196;28;20487;-62
2023/06/14 10:44:11;;;;;;;5.43;1.33;;;;;;;;;;5067851;28;20044;-62
2023/06/14 10:46:37;;;;;;;2.97;1.20;;;;;;;;;;5066941;28;20076;-62
2023/06/14 10:49:03;;;;;;;4.85;1.70;;;;;;;;;;5066260;28;20087;-62
2023/06/14 10:51:30;;;;;;;4.57;1.40;;;;;;;;;;5065573;28;20546;-62
2023/06/14 10:53:59;;;;;;;5.85;1.17;;;;;;;;;;5066949;28;20052;-62
2023/06/14 10:56:31;;;;;;;2.35;1.20;;;;;;;;;;5066432;28;20135;-62
2023/06/14 10:58:58;;;;;;;4.75;1.40;;;;;;;;;;5067304;28;20044;-62
2023/06/14 11:01:32;;;;;;;6.53;1.73;;;;;;;;;;5066193;28;20055;-62
2023/06/14 11:04:05;;;;;;;4.57;1.27;;;;;;;;;;5067394;28;20048;-62
2023/06/14 11:06:37;;;;;;;4.53;1.38;;;;;;;;;;5067944;28;20071;-62
2023/06/14 11:09:09;;;;;;;7.88;1.52;;;;;;;;;;5068585;28;20094;-62
2023/06/14 11:11:35;;;;;;;6.95;1.50;;;;;;;;;;5067950;28;20123;-62
2023/06/14 11:14:02;;;;;;;5.57;1.70;;;;;;;;;;5068534;28;20044;-62
2023/06/14 11:16:28;;;;;;;6.30;1.50;;;;;;;;;;5064986;28;20052;-62
2023/06/14 11:18:55;;;;;;;4.90;1.25;;;;;;;;;;5068074;28;20497;-62
2023/06/14 11:21:21;;;;;;;8.32;1.75;;;;;;;;;;5067976;28;20049;-62
2023/06/14 11:23:54;;;;;;;4.40;1.30;;;;;;;;;;5067559;28;20049;-62
2023/06/14 11:26:30;;;;;;;4.68;1.38;;;;;;;;;;5068198;28;20131;-63
2023/06/14 11:28:57;;;;;;;8.00;1.80;;;;;;;;;;5067292;28;20048;-62
2023/06/14 11:31:23;;;;;;;6.60;1.45;;;;;;;;;;5068132;28;20049;-62
2023/06/14 11:33:59;;;;;;;3.10;1.30;;;;;;;;;;5067749;28;20064;-62
2023/06/14 11:36:29;;;;;;;2.63;1.13;;;;;;;;;;5048330;28;20077;-62
2023/06/14 11:39:08;;;;;;;4.15;1.50;;;;;;;;;;5048566;28;20102;-62
2023/06/14 11:41:42;;;;;;;6.30;1.42;;;;;;;;;;5067765;28;20052;-63
2023/06/14 11:44:08;;;;;;;4.43;1.23;;;;;;;;;;5068057;28;20087;-62
2023/06/14 11:46:35;;;;;;;3.25;1.58;;;;;;;;;;5066981;28;20427;-62
2023/06/14 11:49:03;;;;;;;2.47;1.48;;;;;;;;;;5067307;28;20055;-62
2023/06/14 11:51:30;;;;;;;4.97;1.23;;;;;;;;;;5068009;28;20045;-62
2023/06/14 11:53:56;;;;;;;4.00;1.50;;;;;;;;;;5063883;28;20306;-62
2023/06/14 11:56:22;;;;;;;4.78;1.50;;;;;;;;;;5067426;28;20124;-63
2023/06/14 11:58:48;;;;;;;2.72;1.20;;;;;;;;;;5067583;28;20044;-62
2023/06/14 12:01:17;;;;;;;3.35;1.38;;;;;;;;;;5067410;28;20044;-62
2023/06/14 12:03:50;;;;;;;2.75;1.30;;;;;;;;;;5068113;28;20102;-62
2023/06/14 12:06:17;;;;;;;6.25;1.90;;;;;;;;;;5067196;28;20048;-63
2023/06/14 12:08:45;;;;;;;4.50;1.38;;;;;;;;;;5068390;28;20742;-63
2023/06/14 12:11:12;;;;;;;4.30;1.77;;;;;;;;;;5067368;28;20072;-63
2023/06/14 12:13:41;;;;;;;2.35;1.40;;;;;;;;;;5067793;28;20052;-63
2023/06/14 12:16:10;;;;;;;3.45;1.15;;;;;;;;;;5066959;28;20048;-63
2023/06/14 12:18:37;;;;;;;3.85;1.35;;;;;;;;;;5069107;28;20037;-62
2023/06/14 12:21:06;;;;;;;4.75;1.35;;;;;;;;;;5071210;28;20041;-63
2023/06/14 12:23:49;;;;;;;4.40;1.40;;;;;;;;;;5071722;28;20044;-62
2023/06/14 12:26:18;;;;;;;8.07;1.30;;;;;;;;;;5070980;28;20045;-63
2023/06/14 12:28:48;;;;;;;4.60;1.25;;;;;;;;;;5071550;28;20040;-63
2023/06/14 12:31:14;;;;;;;3.65;1.60;;;;;;;;;;5071181;28;20403;-63
2023/06/14 12:33:41;;;;;;;5.97;1.38;;;;;;;;;;5071222;28;20057;-63
2023/06/14 12:36:08;;;;;;;6.20;1.40;;;;;;;;;;5070653;28;20069;-63
2023/06/14 12:38:34;;;;;;;6.18;1.60;;;;;;;;;;5071593;28;20466;-63
2023/06/14 12:41:00;;;;;;;4.97;1.33;;;;;;;;;;5070552;28;20045;-63
2023/06/14 12:43:26;;;;;;;5.80;1.20;;;;;;;;;;5071404;28;20131;-63
2023/06/14 12:45:52;;;;;;;5.65;1.63;;;;;;;;;;5071077;28;20040;-63
2023/06/14 12:48:18;;;;;;;2.88;1.50;;;;;;;;;;5069874;28;20043;-63
2023/06/14 12:50:44;;;;;;;4.57;1.35;;;;;;;;;;5071328;28;20571;-63
2023/06/14 12:53:10;;;;;;;3.38;1.60;;;;;;;;;;5070683;28;20033;-63
2023/06/14 12:55:36;;;;;;;2.92;1.17;;;;;;;;;;5066001;28;20118;-63
2023/06/14 12:58:02;;;;;;;2.83;1.40;;;;;;;;;;5050381;28;20186;-63
2023/06/14 13:00:30;;;;;;;2.33;1.35;;;;;;;;;;5051638;28;20057;-63
2023/06/14 13:02:56;;;;;;;6.20;1.88;;;;;;;;;;5071107;28;20048;-63
2023/06/14 13:05:23;;;;;;;2.10;1.17;;;;;;;;;;5070904;28;20055;-63
2023/06/14 13:07:49;;;;;;;3.33;1.30;;;;;;;;;;5070508;28;20040;-63
2023/06/14 13:10:15;;;;;;;2.85;1.48;;;;;;;;;;5071069;28;20502;-63
2023/06/14 13:12:41;;;;;;;3.95;1.40;;;;;;;;;;5070343;28;20045;-63
2023/06/14 13:15:07;;;;;;;3.05;1.45;;;;;;;;;;5070782;28;20451;-63
2023/06/14 13:17:38;;;;;;;5.50;1.55;;;;;;;;;;5068735;28;20053;-63
2023/06/14 13:20:04;;;;;;;5.60;1.45;;;;;;;;;;5069956;28;20063;-63
2023/06/14 13:22:30;;;;;;;2.10;1.20;;;;;;;;;;5070567;28;20040;-63
2023/06/14 13:24:56;;;;;;;3.72;1.33;;;;;;;;;;5069811;28;20048;-63
2023/06/14 13:27:24;;;;;;;3.65;1.45;;;;;;;;;;5070330;28;20402;-63
2023/06/14 13:29:50;;;;;;;7.65;1.77;;;;;;;;;;5068083;28;20490;-63
2023/06/14 13:32:16;;;;;;;2.53;1.45;;;;;;;;;;5052299;28;20592;-63
2023/06/14 13:34:42;;;;;;;2.83;1.30;;;;;;;;;;5070275;28;20060;-63
2023/06/14 13:37:08;;;;;;;4.95;1.20;;;;;;;;;;5070206;28;20049;-63
2023/06/14 13:39:37;;;;;;;4.55;1.25;;;;;;;;;;5069024;28;20044;-63
2023/06/14 13:42:03;;;;;;;4.28;1.30;;;;;;;;;;5069584;28;20049;-63
2023/06/14 13:44:29;;;;;;;4.18;2.50;;;;;;;;;;5067585;28;20045;-63
2023/06/14 13:46:55;;;;;;;3.72;1.20;;;;;;;;;;5068335;28;20056;-63
2023/06/14 13:49:21;;;;;;;5.65;1.58;;;;;;;;;;5067005;28;20099;-63
2023/06/14 13:51:47;;;;;;;3.95;1.52;;;;;;;;;;5049003;28;20041;-63
2023/06/14 13:54:15;;;;;;;2.70;1.23;;;;;;;;;;5050496;28;20041;-63
2023/06/14 13:56:41;;;;;;;3.38;1.30;;;;;;;;;;5032385;28;20074;-63
2023/06/14 13:59:07;;;;;;;3.58;1.33;;;;;;;;;;5065293;28;20051;-63
2023/06/14 14:01:33;;;;;;;3.38;1.27;;;;;;;;;;5070076;28;20052;-63
2023/06/14 14:04:00;;;;;;;3.40;1.20;;;;;;;;;;5068866;28;20066;-63
2023/06/14 14:06:26;;;;;;;4.00;1.45;;;;;;;;;;5069580;28;20422;-63
2023/06/14 14:08:53;;;;;;;4.97;1.40;;;;;;;;;;5070307;28;20828;-63
2023/06/14 14:11:20;;;;;;;3.13;1.30;;;;;;;;;;5069643;28;20883;-63
2023/06/14 14:13:46;;;;;;;4.53;1.30;;;;;;;;;;5068408;28;20461;-63
2023/06/14 14:16:13;;;;;;;5.47;1.70;;;;;;;;;;5069291;28;20068;-63
2023/06/14 14:18:39;;;;;;;4.70;1.67;;;;;;;;;;5068821;28;20055;-63
2023/06/14 14:21:05;;;;;;;4.07;1.20;;;;;;;;;;5069733;28;20087;-63
2023/06/14 14:23:31;;;;;;;2.47;1.20;;;;;;;;;;5067513;28;20072;-63
2023/06/14 14:25:58;;;;;;;2.50;1.40;;;;;;;;;;5069870;28;20083;-63
2023/06/14 14:28:24;;;;;;;3.67;1.10;;;;;;;;;;5069147;28;20059;-63
2023/06/14 14:30:50;;;;;;;5.47;1.45;;;;;;;;;;5069395;28;20127;-63
2023/06/14 14:33:17;;;;;;;2.38;1.30;;;;;;;;;;5068986;28;20498;-63
2023/06/14 14:35:45;;;;;;;4.63;1.42;;;;;;;;;;5068699;28;20118;-63
2023/06/14 14:38:12;;;;;;;3.15;1.60;;;;;;;;;;5057363;28;20041;-63
2023/06/14 14:40:38;;;;;;;5.50;1.10;;;;;;;;;;5068612;28;20135;-63
2023/06/14 14:43:04;;;;;;;3.67;1.30;;;;;;;;;;5068290;28;20123;-63
2023/06/14 14:45:31;;;;;;;2.08;1.15;;;;;;;;;;5067315;28;20041;-63